Time;durP1;ratioP1;P1;durP2;ratioP2;P2;SDS_P1;SDS_P2;PMS_P1;PMS_P2;Temp;Humidity;BMP_temperature;BMP_pressure;BME280_temperature;BME280_humidity;BME280_pressure;Samples;Min_cycle;Max_cycle;Signal;HPM_P1;HPM_P2
2023/06/22 15:29:33;;;;;;;7.00;6.30;;;;;;;37.64;24.04;100604.55;105951;1284;606195;-83
2023/06/22 15:32:01;;;;;;;6.70;6.10;;;;;;;39.57;21.55;100607.76;103603;1263;5193512;-82
2023/06/22 15:34:28;;;;;;;7.10;6.30;;;;;;;39.24;20.98;100610.15;107480;1263;59227;-81
2023/06/22 15:36:54;;;;;;;7.60;6.80;;;;;;;38.94;21.17;100615.83;107358;1264;59541;-81
2023/06/22 15:39:23;;;;;;;6.80;6.20;;;;;;;38.71;21.69;100611.55;107465;1264;59387;-82
2023/06/22 15:41:49;;;;;;;7.40;6.60;;;;;;;38.58;21.65;100613.02;107488;1264;64377;-81
2023/06/22 15:44:16;;;;;;;7.30;6.60;;;;;;;38.42;22.05;100615.83;107508;1264;59438;-81
2023/06/22 15:46:43;;;;;;;7.10;6.40;;;;;;;38.14;22.10;100618.84;107469;1264;59234;-83
2023/06/22 16:14:28;;;;;;;8.50;7.20;;;;;;;36.61;23.10;100620.72;105968;1280;603904;-82
2023/06/22 16:16:56;;;;;;;7.80;7.00;;;;;;;38.34;21.08;100617.77;103592;1263;5236127;-82
2023/06/22 16:19:24;;;;;;;7.10;6.40;;;;;;;37.98;21.50;100617.65;107537;1263;59656;-82
2023/06/22 16:21:52;;;;;;;7.10;6.50;;;;;;;37.73;22.19;100619.80;107564;1263;62114;-82
2023/06/22 16:24:20;;;;;;;6.70;6.10;;;;;;;37.76;22.57;100619.16;107567;1264;63871;-82
2023/06/22 16:26:47;;;;;;;7.40;6.80;;;;;;;37.94;21.97;100611.65;107487;1264;62472;-81
2023/06/22 16:29:15;;;;;;;8.00;7.30;;;;;;;38.11;21.93;100615.09;107548;1264;59522;-81
2023/06/22 16:31:43;;;;;;;8.70;7.10;;;;;;;38.54;21.68;100611.30;107544;1264;60062;-82
2023/06/22 16:34:11;;;;;;;7.60;6.90;;;;;;;38.98;21.24;100606.98;107529;1263;63288;-82
2023/06/22 16:36:38;;;;;;;7.20;6.50;;;;;;;39.14;21.53;100607.77;107575;1264;63841;-82
2023/06/22 16:39:06;;;;;;;7.50;6.90;;;;;;;39.20;20.81;100599.37;107551;1264;63248;-81
2023/06/22 16:41:34;;;;;;;7.80;6.30;;;;;;;39.20;20.41;100595.21;107530;1265;59626;-81
2023/06/22 16:44:04;;;;;;;8.20;6.60;;;;;;;39.10;20.36;100592.76;107499;1264;59422;-83
2023/06/22 16:46:34;;;;;;;7.30;6.60;;;;;;;39.05;21.02;100593.91;108375;1256;64218;-82
2023/06/22 16:49:02;;;;;;;7.20;6.60;;;;;;;39.08;21.39;100589.97;108320;1254;63800;-81
2023/06/22 16:51:30;;;;;;;7.80;7.00;;;;;;;39.08;20.95;100588.98;108293;1254;63346;-82
2023/06/22 16:53:57;;;;;;;7.40;6.50;;;;;;;38.96;21.56;100592.61;108286;1253;60245;-82
2023/06/22 16:56:26;;;;;;;7.30;6.60;;;;;;;38.95;22.19;100590.89;108342;1253;59487;-82
2023/06/22 16:58:56;;;;;;;7.60;6.80;;;;;;;38.95;22.44;100591.38;108343;1254;64113;-82
2023/06/22 17:01:34;;;;;;;8.20;6.70;;;;;;;38.85;23.23;100585.71;108371;1253;63791;-82
2023/06/22 17:04:09;;;;;;;7.10;6.40;;;;;;;38.36;23.95;100586.28;108296;1252;63803;-81
2023/06/22 17:06:39;;;;;;;7.50;6.70;;;;;;;38.10;24.43;100587.13;108334;1253;59452;-82
2023/06/22 17:09:12;;;;;;;8.40;5.90;;;;;;;37.83;24.89;100585.73;108007;1254;61378;-82
2023/06/22 17:11:41;;;;;;;6.70;6.10;;;;;;;37.79;24.89;100584.11;108221;1253;64170;-86
2023/06/22 17:14:08;;;;;;;9.40;6.50;;;;;;;37.56;25.61;100587.40;108141;1254;64355;-82
2023/06/22 17:16:36;;;;;;;7.10;6.20;;;;;;;37.14;26.12;100593.88;108136;1255;63718;-81
2023/06/22 17:19:05;;;;;;;6.90;6.30;;;;;;;36.73;26.66;100593.52;107779;1257;61132;-81
2023/06/22 17:21:33;;;;;;;7.50;6.00;;;;;;;36.35;27.00;100589.64;108161;1256;59588;-82
2023/06/22 17:24:01;;;;;;;7.30;6.30;;;;;;;35.89;27.72;100587.15;108102;1256;64146;-83
2023/06/22 17:26:30;;;;;;;6.90;6.20;;;;;;;35.56;28.07;100589.27;108169;1254;63894;-81
2023/06/22 17:29:01;;;;;;;7.00;6.30;;;;;;;35.29;28.46;100589.88;108199;1254;63789;-82
2023/06/22 17:31:39;;;;;;;6.00;5.40;;;;;;;34.98;28.93;100588.74;108187;1255;59554;-81
2023/06/22 17:34:14;;;;;;;8.70;6.50;;;;;;;34.60;29.72;100585.02;108143;1254;59241;-83
2023/06/22 17:36:46;;;;;;;7.30;6.00;;;;;;;34.18;30.42;100584.53;108195;1254;63050;-81
2023/06/22 17:39:17;;;;;;;7.70;6.50;;;;;;;33.75;31.21;100584.30;108089;1259;62633;-81
2023/06/22 17:41:47;;;;;;;7.40;6.10;;;;;;;33.31;32.04;100585.10;108172;1254;62470;-82
2023/06/22 17:44:25;;;;;;;7.40;6.70;;;;;;;32.88;32.89;100584.40;108178;1255;59599;-80
2023/06/22 17:46:54;;;;;;;7.10;6.10;;;;;;;32.48;33.69;100587.23;108225;1253;60123;-82
2023/06/22 17:49:27;;;;;;;6.90;6.20;;;;;;;32.13;34.19;100586.34;108250;1254;64217;-83
2023/06/22 17:51:55;;;;;;;8.50;6.30;;;;;;;31.79;34.64;100591.38;108266;1252;63928;-81
2023/06/22 17:54:23;;;;;;;6.50;5.80;;;;;;;31.47;35.50;100593.39;108182;1254;62499;-82
2023/06/22 17:57:27;;;;;;;7.70;6.00;;;;;;;31.10;36.29;100595.56;108205;1254;59301;-81
2023/06/22 17:59:54;;;;;;;6.60;5.90;;;;;;;30.75;36.93;100595.64;108212;1253;59689;-82
2023/06/22 18:02:23;;;;;;;8.50;6.30;;;;;;;30.49;37.23;100594.58;108191;1253;64077;-81
2023/06/22 18:04:57;;;;;;;8.50;6.40;;;;;;;30.26;37.83;100594.86;108282;1254;62645;-83
2023/06/22 18:07:25;;;;;;;8.20;6.40;;;;;;;30.02;38.42;100594.93;108218;1254;62431;-82
2023/06/22 18:09:53;;;;;;;7.60;6.60;;;;;;;29.83;38.82;100600.61;108195;1253;59531;-81
2023/06/22 18:12:24;;;;;;;7.70;6.90;;;;;;;29.60;39.26;100605.14;108261;1253;60025;-81
2023/06/22 18:14:53;;;;;;;8.00;6.90;;;;;;;29.41;39.83;100605.17;108256;1253;71880;-84
2023/06/22 18:17:34;;;;;;;7.30;6.60;;;;;;;29.20;40.13;100607.70;108257;1253;63986;-82
2023/06/22 18:20:22;;;;;;;7.50;6.60;;;;;;;28.37;41.97;100617.16;108268;1253;72720;-81
2023/06/22 18:22:50;;;;;;;7.20;6.00;;;;;;;28.10;42.76;100618.18;108151;1254;61035;-81
2023/06/22 18:25:18;;;;;;;8.00;6.80;;;;;;;27.89;43.37;100619.11;108232;1254;59519;-80
2023/06/22 18:27:47;;;;;;;10.00;8.40;;;;;;;27.73;43.71;100625.23;108182;1254;71709;-80
2023/06/22 18:30:15;;;;;;;8.30;7.20;;;;;;;27.57;44.22;100631.13;108162;1254;71636;-81
2023/06/22 18:32:43;;;;;;;8.00;6.80;;;;;;;27.42;44.65;100631.60;108233;1254;72662;-81
2023/06/22 18:35:11;;;;;;;9.10;7.50;;;;;;;27.26;45.04;100629.42;107979;1254;59570;-81
2023/06/22 18:37:40;;;;;;;9.20;7.30;;;;;;;27.13;45.50;100631.86;108038;1254;59500;-81
2023/06/22 18:40:08;;;;;;;7.70;6.80;;;;;;;27.00;45.90;100633.98;108199;1253;75309;-81
2023/06/22 18:42:42;;;;;;;7.80;7.00;;;;;;;26.87;46.14;100633.71;108122;1253;71347;-81
2023/06/22 18:45:40;;;;;;;7.50;6.70;;;;;;;26.74;46.61;100635.80;108222;1253;70963;-83
2023/06/22 18:48:08;;;;;;;7.50;6.70;;;;;;;26.60;47.05;100638.69;108089;1254;60097;-82
2023/06/22 18:50:45;;;;;;;7.60;6.40;;;;;;;26.50;47.40;100640.91;108131;1253;59535;-81
2023/06/22 18:53:16;;;;;;;7.80;6.90;;;;;;;26.40;47.59;100643.94;108149;1253;73104;-81
2023/06/22 18:55:45;;;;;;;7.70;6.90;;;;;;;26.32;47.70;100644.88;108194;1253;72723;-81
2023/06/22 18:58:18;;;;;;;8.00;7.20;;;;;;;26.25;47.74;100645.52;108199;1253;72810;-82
2023/06/22 19:00:47;;;;;;;9.60;7.30;;;;;;;26.19;47.86;100645.48;108186;1253;60106;-80
2023/06/22 19:03:33;;;;;;;7.60;6.80;;;;;;;26.15;47.97;100643.37;107992;1253;59022;-82
2023/06/22 19:06:01;;;;;;;8.20;6.80;;;;;;;26.11;47.96;100643.83;108290;1254;71738;-81
2023/06/22 19:09:18;;;;;;;7.80;6.30;;;;;;;26.06;48.04;100647.80;108203;1254;71134;-83
2023/06/22 19:11:47;;;;;;;7.40;6.60;;;;;;;26.00;48.18;100645.96;107569;1259;73703;-81
2023/06/22 19:14:19;;;;;;;9.10;7.00;;;;;;;25.96;48.32;100644.00;108259;1253;62135;-82
2023/06/22 19:16:49;;;;;;;7.90;6.80;;;;;;;25.92;48.31;100643.45;108189;1253;61739;-81
2023/06/22 19:19:31;;;;;;;7.40;6.60;;;;;;;25.92;48.45;100644.14;108220;1253;73097;-81
2023/06/22 19:23:11;;;;;;;7.60;6.40;;;;;;;25.89;48.64;100643.67;108193;1253;72459;-81
2023/06/22 19:25:39;;;;;;;7.60;6.80;;;;;;;25.82;48.83;100644.45;107861;1254;74893;-81
2023/06/22 19:28:10;;;;;;;8.70;7.30;;;;;;;25.76;48.95;100642.68;108063;1254;59532;-82
2023/06/22 19:30:39;;;;;;;8.70;6.60;;;;;;;25.70;48.98;100648.09;108227;1253;60115;-80
2023/06/22 19:33:07;;;;;;;8.40;7.40;;;;;;;25.64;48.97;100649.38;108216;1254;73221;-81
2023/06/22 19:35:36;;;;;;;8.80;6.90;;;;;;;25.56;48.92;100656.07;107967;1253;72822;-81
2023/06/22 19:38:04;;;;;;;8.70;7.80;;;;;;;25.50;49.13;100655.38;108235;1254;72519;-81
2023/06/22 19:40:32;;;;;;;9.30;7.50;;;;;;;25.45;49.07;100654.49;108332;1253;59586;-81
2023/06/22 19:42:59;;;;;;;10.10;7.30;;;;;;;25.42;49.18;100654.25;108150;1254;60022;-81
2023/06/22 19:45:27;;;;;;;8.60;6.90;;;;;;;25.40;49.13;100650.39;108279;1254;71771;-81
2023/06/22 19:47:56;;;;;;;8.40;7.10;;;;;;;25.41;49.28;100650.25;108219;1254;72989;-82
2023/06/22 19:50:24;;;;;;;10.10;7.10;;;;;;;25.37;49.23;100647.04;108229;1253;71462;-81
2023/06/22 19:52:53;;;;;;;8.80;7.20;;;;;;;25.33;49.17;100650.14;108268;1254;59610;-82
2023/06/22 19:55:21;;;;;;;8.60;6.90;;;;;;;25.28;49.05;100650.42;108276;1253;60339;-82
2023/06/22 19:57:51;;;;;;;7.60;6.80;;;;;;;25.24;49.23;100654.94;107919;1254;73054;-81
2023/06/22 20:00:22;;;;;;;9.00;7.30;;;;;;;25.19;49.30;100654.26;108179;1254;72475;-80
2023/06/22 20:02:52;;;;;;;8.40;7.10;;;;;;;25.14;49.35;100656.17;108167;1254;74548;-80
2023/06/22 20:05:20;;;;;;;8.50;7.00;;;;;;;25.12;49.34;100656.81;108162;1254;60085;-81
2023/06/22 20:07:47;;;;;;;8.70;7.60;;;;;;;25.08;49.39;100654.89;108203;1253;59660;-80
2023/06/22 20:10:20;;;;;;;8.90;7.30;;;;;;;25.04;49.66;100655.27;108330;1254;72932;-82
2023/06/22 20:12:50;;;;;;;8.10;6.90;;;;;;;25.00;49.63;100656.66;108173;1254;72709;-80
2023/06/22 20:15:20;;;;;;;8.30;7.30;;;;;;;24.96;49.78;100657.86;108006;1256;71243;-81
2023/06/22 20:18:09;;;;;;;8.50;7.50;;;;;;;24.92;49.73;100660.84;108115;1254;59576;-81
2023/06/22 20:20:54;;;;;;;9.30;7.60;;;;;;;25.01;49.50;100659.27;108160;1254;60475;-81
2023/06/22 20:23:31;;;;;;;8.30;6.90;;;;;;;24.90;49.72;100656.86;107931;1254;73061;-81
2023/06/22 20:26:08;;;;;;;9.00;7.50;;;;;;;24.83;49.93;100655.14;108179;1254;72844;-81
2023/06/22 20:28:50;;;;;;;8.60;7.60;;;;;;;24.73;50.23;100651.67;108201;1254;71599;-81
2023/06/22 20:32:05;;;;;;;8.90;7.50;;;;;;;24.68;50.45;100647.16;108179;1254;60646;-81
2023/06/22 20:34:54;;;;;;;8.10;7.30;;;;;;;24.62;50.58;100642.79;108163;1253;60339;-81
2023/06/22 20:37:22;;;;;;;8.10;7.00;;;;;;;24.56;50.71;100637.66;108157;1254;74761;-80
2023/06/22 20:39:51;;;;;;;8.30;7.30;;;;;;;24.53;50.88;100637.41;108183;1254;74902;-83
2023/06/22 20:42:18;;;;;;;8.40;7.10;;;;;;;24.49;51.06;100643.94;108261;1253;71403;-80
2023/06/22 20:44:49;;;;;;;8.60;7.10;;;;;;;24.93;50.22;100638.60;108217;1254;61678;-81
2023/06/22 20:47:20;;;;;;;8.00;7.20;;;;;;;25.08;49.72;100635.15;108227;1254;60260;-80
2023/06/22 20:49:49;;;;;;;8.10;7.30;;;;;;;25.09;49.62;100637.52;108198;1254;73874;-80
2023/06/22 20:52:20;;;;;;;8.20;6.80;;;;;;;25.09;49.61;100644.00;108155;1254;72924;-80
2023/06/22 20:54:48;;;;;;;9.10;7.10;;;;;;;25.09;49.62;100643.66;108148;1254;72486;-81
2023/06/22 20:57:15;;;;;;;8.00;7.10;;;;;;;25.07;49.69;100639.26;108220;1259;60533;-80
2023/06/22 20:59:43;;;;;;;8.40;7.50;;;;;;;25.07;49.68;100639.80;108223;1253;60303;-81
2023/06/22 21:02:11;;;;;;;8.00;7.20;;;;;;;25.05;49.70;100640.53;108198;1253;72947;-81
2023/06/22 21:04:39;;;;;;;8.70;7.20;;;;;;;24.90;49.95;100638.99;108251;1254;72709;-81
2023/06/22 21:07:06;;;;;;;8.10;7.20;;;;;;;24.41;51.13;100640.42;108268;1254;72791;-81
2023/06/22 21:09:34;;;;;;;8.10;7.30;;;;;;;24.26;51.67;100641.33;108232;1253;60303;-80
2023/06/22 21:12:17;;;;;;;10.20;7.60;;;;;;;24.19;52.03;100637.15;108151;1253;60368;-81
2023/06/22 21:14:46;;;;;;;9.30;7.80;;;;;;;24.15;52.23;100637.26;108251;1253;72383;-81
2023/06/22 21:17:13;;;;;;;8.60;6.80;;;;;;;24.09;52.28;100637.18;108240;1253;72711;-81
2023/06/22 21:19:41;;;;;;;8.90;7.30;;;;;;;24.05;52.36;100631.15;108221;1254;72703;-81
2023/06/22 21:22:08;;;;;;;8.40;7.30;;;;;;;24.02;52.52;100632.70;108163;1254;60758;-81
2023/06/22 21:24:36;;;;;;;7.90;7.10;;;;;;;24.00;52.65;100629.76;108229;1254;59484;-79
2023/06/22 21:27:04;;;;;;;8.10;6.90;;;;;;;23.98;52.71;100630.94;108288;1253;72531;-81
2023/06/22 21:29:32;;;;;;;9.50;7.50;;;;;;;23.96;52.81;100635.16;108266;1254;71481;-81
2023/06/22 21:32:01;;;;;;;8.30;7.00;;;;;;;23.93;52.98;100634.31;108202;1254;72747;-81
2023/06/22 21:34:29;;;;;;;8.60;6.90;;;;;;;23.90;53.07;100631.01;108136;1254;60508;-81
2023/06/22 21:36:57;;;;;;;8.30;7.50;;;;;;;23.87;53.19;100631.02;108226;1254;60065;-80
2023/06/22 21:40:07;;;;;;;8.70;6.90;;;;;;;23.84;53.23;100624.31;108303;1254;75688;-80
2023/06/22 21:42:35;;;;;;;7.70;6.80;;;;;;;23.80;53.27;100617.27;108282;1253;72572;-82
2023/06/22 21:45:03;;;;;;;7.80;7.00;;;;;;;23.76;53.36;100618.67;108227;1254;72733;-81
2023/06/22 21:47:31;;;;;;;9.10;7.50;;;;;;;23.71;53.55;100618.08;108129;1254;61934;-81
2023/06/22 21:49:58;;;;;;;10.60;7.40;;;;;;;23.69;53.66;100613.77;108232;1254;60395;-81
2023/06/22 21:52:29;;;;;;;8.20;7.20;;;;;;;23.67;53.60;100615.05;108192;1254;73903;-81
2023/06/22 21:54:57;;;;;;;9.50;7.40;;;;;;;23.65;53.75;100610.78;108235;1254;72482;-81
2023/06/22 21:57:26;;;;;;;8.80;7.30;;;;;;;23.63;53.87;100608.67;108194;1254;71054;-79
2023/06/22 21:59:54;;;;;;;8.20;7.10;;;;;;;23.61;53.79;100606.86;108221;1258;61010;-81
2023/06/22 22:02:23;;;;;;;8.00;6.90;;;;;;;23.61;53.98;100603.73;108205;1254;60430;-81
2023/06/22 22:04:53;;;;;;;10.50;7.50;;;;;;;23.59;53.99;100598.92;108288;1253;73869;-81
2023/06/22 22:07:25;;;;;;;8.90;6.90;;;;;;;23.56;53.97;100596.87;108249;1253;74693;-81
2023/06/22 22:09:53;;;;;;;9.30;7.20;;;;;;;23.54;54.07;100598.29;108247;1254;72534;-79
2023/06/22 22:12:21;;;;;;;9.10;6.80;;;;;;;23.52;54.21;100593.64;108103;1254;61983;-80
2023/06/22 22:14:49;;;;;;;8.40;7.10;;;;;;;23.49;54.24;100594.55;108135;1254;60331;-81
2023/06/22 22:17:16;;;;;;;8.90;6.90;;;;;;;23.48;54.33;100594.45;108162;1254;73011;-80
2023/06/22 22:19:44;;;;;;;8.90;6.90;;;;;;;23.48;54.40;100592.02;108193;1254;71427;-80
2023/06/22 22:22:12;;;;;;;8.30;7.00;;;;;;;23.47;54.27;100587.24;108166;1254;72769;-81
2023/06/22 22:24:40;;;;;;;9.20;7.50;;;;;;;23.47;54.15;100583.92;108167;1254;60156;-80
2023/06/22 22:27:07;;;;;;;9.00;7.20;;;;;;;23.47;54.28;100583.83;108240;1253;60433;-81
2023/06/22 22:29:37;;;;;;;8.30;7.20;;;;;;;23.71;53.65;100572.01;108280;1254;73797;-82
2023/06/22 22:32:06;;;;;;;7.50;6.70;;;;;;;23.59;53.80;100568.38;108106;1254;71523;-81
2023/06/22 22:34:34;;;;;;;8.80;6.80;;;;;;;23.67;53.59;100565.43;108100;1254;72731;-81
2023/06/22 22:37:02;;;;;;;8.40;7.10;;;;;;;23.53;53.84;100561.73;108159;1256;60554;-80
2023/06/22 22:39:30;;;;;;;9.50;7.20;;;;;;;23.45;54.22;100561.02;108213;1254;60437;-80
2023/06/22 22:41:59;;;;;;;7.70;6.70;;;;;;;23.43;54.25;100553.87;108248;1254;72612;-81
2023/06/22 22:44:27;;;;;;;8.90;7.10;;;;;;;23.41;54.39;100553.44;108153;1254;72730;-80
2023/06/22 22:46:54;;;;;;;8.60;7.20;;;;;;;23.41;54.25;100551.09;108138;1256;72704;-80
2023/06/22 22:49:23;;;;;;;8.20;7.20;;;;;;;23.39;54.37;100546.35;108172;1254;60326;-81
2023/06/22 22:51:51;;;;;;;8.00;7.20;;;;;;;23.37;54.44;100540.39;108183;1254;60011;-81
2023/06/22 23:19:19;;;;;;;8.70;7.70;;;;;;;23.56;53.87;100516.27;104565;1294;612890;-80
2023/06/22 23:21:48;;;;;;;8.00;7.20;;;;;;;23.79;53.14;100508.52;103342;1267;5198099;-80
2023/06/22 23:24:16;;;;;;;8.40;7.40;;;;;;;23.71;53.51;100508.67;107278;1268;60051;-80
2023/06/22 23:26:47;;;;;;;9.10;7.60;;;;;;;23.63;53.64;100510.15;107323;1267;70955;-81
2023/06/22 23:29:16;;;;;;;8.90;7.90;;;;;;;23.59;53.43;100504.33;107312;1268;73024;-80
2023/06/22 23:31:44;;;;;;;8.50;7.30;;;;;;;23.55;53.50;100504.77;107246;1268;72792;-81
2023/06/22 23:34:12;;;;;;;9.60;7.20;;;;;;;23.50;53.56;100501.90;107349;1268;59474;-81
2023/06/22 23:36:39;;;;;;;11.50;7.40;;;;;;;23.44;53.69;100501.65;107384;1267;59498;-80
2023/06/22 23:39:07;;;;;;;8.50;7.30;;;;;;;23.38;53.78;100502.09;107779;1259;71155;-81
2023/06/22 23:41:35;;;;;;;8.80;7.30;;;;;;;23.32;54.01;100503.94;107740;1263;72806;-80
2023/06/22 23:44:03;;;;;;;11.80;7.40;;;;;;;23.23;54.88;100507.73;107753;1263;71675;-80
2023/06/22 23:46:31;;;;;;;10.70;7.60;;;;;;;23.14;55.85;100510.56;107738;1259;60427;-81
2023/06/22 23:48:58;;;;;;;8.80;7.90;;;;;;;23.06;56.47;100508.21;107713;1258;60040;-80
2023/06/22 23:51:29;;;;;;;9.80;8.10;;;;;;;22.98;57.17;100508.46;107725;1257;72996;-80
2023/06/22 23:53:57;;;;;;;9.00;7.70;;;;;;;22.87;57.83;100507.89;107704;1259;72766;-80
2023/06/22 23:56:25;;;;;;;9.40;8.40;;;;;;;22.78;58.38;100506.00;107766;1257;72706;-81
2023/06/22 23:58:52;;;;;;;9.80;7.80;;;;;;;22.72;58.97;100502.61;107752;1257;61646;-82
